ESNK/KRF METAR and TAF weather

Enter ICAO airport designator
Station Type Date Time Source
ESNK METAR 2019/06/16 07:20 UTC NOAA

ESNK 160720Z AUTO VRB02KT 9999 NCD 20/13 Q1014


Station Type Date Time Source
ESNK Decoded METAR 2019/06/16 07:20 UTC NOAA

Kramfors Flygplats, Sweden (ESNK) 63-03N 017-46E 19M
Jun 16, 2019 - 03:20 AM EDT / 2019.06.16 0720 UTC
Wind: Variable at 2 MPH (2 KT):0
Visibility: greater than 7 mile(s):0
Temperature: 68 F (20 C)
Dew Point: 55 F (13 C)
Relative Humidity: 64%
Pressure (altimeter): 29.94 in. Hg (1014 hPa)
ob: ESNK 160720Z AUTO VRB02KT 9999 NCD 20/13 Q1014
cycle: 7

Station Type Date Time Source
ESNK TAF 2017/12/15 06:00 UTC NOAA

TAF
AMD ESNK 150654Z 1506/1521 35005KT 6000 -SN BKN016
TEMPO 1506/1521 2000 SN SG VV009

Example: see airport list